sensor_id;sensor_type;location;lat;lon;timestamp;pressure;altitude;pressure_sealevel;temperature;humidity
55540;BME280;41384;51.418;7.286;2023-03-22T00:01:51;99344.19;;;11.07;87.69
55540;BME280;41384;51.418;7.286;2023-03-22T00:04:18;99340.91;;;11.12;87.73
55540;BME280;41384;51.418;7.286;2023-03-22T00:06:43;99346.38;;;11.10;87.28
55540;BME280;41384;51.418;7.286;2023-03-22T00:09:08;99336.66;;;11.11;87.10
55540;BME280;41384;51.418;7.286;2023-03-22T00:11:33;99336.41;;;11.12;87.53
55540;BME280;41384;51.418;7.286;2023-03-22T00:13:59;99339.50;;;11.09;87.32
55540;BME280;41384;51.418;7.286;2023-03-22T00:16:25;99333.41;;;11.08;87.80
55540;BME280;41384;51.418;7.286;2023-03-22T00:18:50;99332.41;;;11.09;87.44
55540;BME280;41384;51.418;7.286;2023-03-22T00:21:16;99331.56;;;11.09;87.52
55540;BME280;41384;51.418;7.286;2023-03-22T00:23:41;99327.69;;;11.12;87.27
55540;BME280;41384;51.418;7.286;2023-03-22T00:26:10;99326.94;;;11.04;87.40
55540;BME280;41384;51.418;7.286;2023-03-22T00:28:36;99326.09;;;11.11;87.29
55540;BME280;41384;51.418;7.286;2023-03-22T00:31:02;99324.63;;;11.15;86.92
55540;BME280;41384;51.418;7.286;2023-03-22T00:33:29;99327.25;;;11.15;86.89
55540;BME280;41384;51.418;7.286;2023-03-22T00:36:00;99324.81;;;11.13;86.82
55540;BME280;41384;51.418;7.286;2023-03-22T00:38:26;99320.34;;;11.14;87.03
55540;BME280;41384;51.418;7.286;2023-03-22T00:43:35;99320.56;;;11.12;86.79
55540;BME280;41384;51.418;7.286;2023-03-22T00:46:00;99322.19;;;11.13;87.04
55540;BME280;41384;51.418;7.286;2023-03-22T00:48:25;99321.59;;;11.11;87.54
55540;BME280;41384;51.418;7.286;2023-03-22T00:50:51;99311.84;;;11.12;87.21
55540;BME280;41384;51.418;7.286;2023-03-22T00:53:16;99308.19;;;11.13;86.96
55540;BME280;41384;51.418;7.286;2023-03-22T00:55:41;99296.00;;;11.12;87.36
55540;BME280;41384;51.418;7.286;2023-03-22T00:58:06;99301.41;;;11.17;87.27
55540;BME280;41384;51.418;7.286;2023-03-22T01:00:32;99299.00;;;11.15;86.93
55540;BME280;41384;51.418;7.286;2023-03-22T01:02:57;99281.63;;;11.07;88.65
55540;BME280;41384;51.418;7.286;2023-03-22T01:05:24;99289.38;;;11.02;88.69
55540;BME280;41384;51.418;7.286;2023-03-22T01:07:49;99286.91;;;11.07;88.59
55540;BME280;41384;51.418;7.286;2023-03-22T01:10:15;99291.38;;;11.07;88.48
55540;BME280;41384;51.418;7.286;2023-03-22T01:12:40;99280.09;;;11.00;89.19
55540;BME280;41384;51.418;7.286;2023-03-22T01:15:06;99270.69;;;11.04;89.36
55540;BME280;41384;51.418;7.286;2023-03-22T01:17:32;99281.25;;;11.04;89.54
55540;BME280;41384;51.418;7.286;2023-03-22T01:19:57;99275.38;;;11.02;89.73
55540;BME280;41384;51.418;7.286;2023-03-22T01:22:22;99277.78;;;11.03;90.35
55540;BME280;41384;51.418;7.286;2023-03-22T01:24:48;99270.81;;;11.09;89.94
55540;BME280;41384;51.418;7.286;2023-03-22T01:27:14;99265.03;;;11.00;90.80
55540;BME280;41384;51.418;7.286;2023-03-22T01:29:40;99271.28;;;11.06;90.77
55540;BME280;41384;51.418;7.286;2023-03-22T01:32:05;99263.41;;;10.99;90.71
55540;BME280;41384;51.418;7.286;2023-03-22T01:34:30;99265.63;;;11.02;91.15
55540;BME280;41384;51.418;7.286;2023-03-22T01:36:56;99255.44;;;11.06;90.87
55540;BME280;41384;51.418;7.286;2023-03-22T01:39:21;99250.81;;;11.01;91.20
55540;BME280;41384;51.418;7.286;2023-03-22T01:41:46;99253.09;;;10.98;91.66
55540;BME280;41384;51.418;7.286;2023-03-22T01:44:17;99253.81;;;11.05;90.93
55540;BME280;41384;51.418;7.286;2023-03-22T01:46:45;99246.66;;;10.93;91.94
55540;BME280;41384;51.418;7.286;2023-03-22T01:49:16;99247.09;;;10.90;92.13
55540;BME280;41384;51.418;7.286;2023-03-22T01:51:45;99239.38;;;10.89;92.19
55540;BME280;41384;51.418;7.286;2023-03-22T01:54:35;99239.75;;;10.92;92.02
55540;BME280;41384;51.418;7.286;2023-03-22T01:57:00;99231.59;;;10.94;92.14
55540;BME280;41384;51.418;7.286;2023-03-22T01:59:26;99231.31;;;10.84;92.65
55540;BME280;41384;51.418;7.286;2023-03-22T02:01:52;99231.69;;;10.87;92.66
55540;BME280;41384;51.418;7.286;2023-03-22T02:04:20;99223.34;;;10.90;92.44
55540;BME280;41384;51.418;7.286;2023-03-22T02:06:49;99222.75;;;10.88;92.80
55540;BME280;41384;51.418;7.286;2023-03-22T02:09:21;99212.69;;;10.78;92.96
55540;BME280;41384;51.418;7.286;2023-03-22T02:12:02;99211.06;;;10.65;94.21
55540;BME280;41384;51.418;7.286;2023-03-22T02:17:54;99208.91;;;10.74;93.51
55540;BME280;41384;51.418;7.286;2023-03-22T02:20:38;99206.97;;;10.82;93.39
55540;BME280;41384;51.418;7.286;2023-03-22T02:23:25;99208.91;;;10.74;93.51
55540;BME280;41384;51.418;7.286;2023-03-22T02:29:07;99200.19;;;10.74;93.56
55540;BME280;41384;51.418;7.286;2023-03-22T02:32:17;99197.84;;;10.65;93.54
55540;BME280;41384;51.418;7.286;2023-03-22T02:35:03;99192.63;;;10.59;94.54
55540;BME280;41384;51.418;7.286;2023-03-22T02:40:42;99191.25;;;10.56;94.86
55540;BME280;41384;51.418;7.286;2023-03-22T02:43:31;99193.03;;;10.62;95.28
55540;BME280;41384;51.418;7.286;2023-03-22T02:46:06;99183.63;;;10.67;94.53
55540;BME280;41384;51.418;7.286;2023-03-22T02:51:28;99168.31;;;10.57;96.02
55540;BME280;41384;51.418;7.286;2023-03-22T02:54:00;99162.97;;;10.63;95.60
55540;BME280;41384;51.418;7.286;2023-03-22T02:56:32;99161.34;;;10.44;96.79
55540;BME280;41384;51.418;7.286;2023-03-22T02:59:02;99158.19;;;10.54;96.21
55540;BME280;41384;51.418;7.286;2023-03-22T03:01:37;99156.34;;;10.54;96.05
55540;BME280;41384;51.418;7.286;2023-03-22T03:04:07;99152.91;;;10.54;95.87
55540;BME280;41384;51.418;7.286;2023-03-22T03:06:38;99150.88;;;10.56;96.10
55540;BME280;41384;51.418;7.286;2023-03-22T03:09:05;99153.56;;;10.49;96.35
55540;BME280;41384;51.418;7.286;2023-03-22T03:11:31;99149.69;;;10.51;96.74
55540;BME280;41384;51.418;7.286;2023-03-22T03:13:57;99150.72;;;10.50;96.36
55540;BME280;41384;51.418;7.286;2023-03-22T03:16:26;99149.56;;;10.46;97.46
55540;BME280;41384;51.418;7.286;2023-03-22T03:18:58;99152.53;;;10.50;97.34
55540;BME280;41384;51.418;7.286;2023-03-22T03:21:32;99157.97;;;10.55;96.59
55540;BME280;41384;51.418;7.286;2023-03-22T03:26:56;99143.53;;;10.39;97.73
55540;BME280;41384;51.418;7.286;2023-03-22T03:32:14;99135.25;;;10.35;98.43
55540;BME280;41384;51.418;7.286;2023-03-22T03:37:33;99134.19;;;10.43;98.26
55540;BME280;41384;51.418;7.286;2023-03-22T03:40:08;99131.09;;;10.46;97.65
55540;BME280;41384;51.418;7.286;2023-03-22T03:42:42;99135.63;;;10.39;98.00
55540;BME280;41384;51.418;7.286;2023-03-22T03:45:12;99128.00;;;10.31;98.93
55540;BME280;41384;51.418;7.286;2023-03-22T03:47:38;99122.59;;;10.26;98.96
55540;BME280;41384;51.418;7.286;2023-03-22T03:50:04;99141.41;;;10.29;99.76
55540;BME280;41384;51.418;7.286;2023-03-22T03:52:30;99118.38;;;10.36;98.80
55540;BME280;41384;51.418;7.286;2023-03-22T03:54:55;99125.13;;;10.32;99.07
55540;BME280;41384;51.418;7.286;2023-03-22T03:57:21;99119.94;;;10.26;99.54
55540;BME280;41384;51.418;7.286;2023-03-22T03:59:46;99119.06;;;10.32;99.42
55540;BME280;41384;51.418;7.286;2023-03-22T04:02:11;99128.06;;;10.24;99.60
55540;BME280;41384;51.418;7.286;2023-03-22T04:04:37;99120.53;;;10.28;99.70
55540;BME280;41384;51.418;7.286;2023-03-22T04:07:04;99131.28;;;10.26;99.97
55540;BME280;41384;51.418;7.286;2023-03-22T04:09:32;99116.06;;;10.28;99.48
55540;BME280;41384;51.418;7.286;2023-03-22T04:11:58;99123.19;;;10.28;99.40
55540;BME280;41384;51.418;7.286;2023-03-22T04:14:25;99135.34;;;10.29;99.39
55540;BME280;41384;51.418;7.286;2023-03-22T04:16:51;99122.94;;;10.29;99.19
55540;BME280;41384;51.418;7.286;2023-03-22T04:19:16;99123.63;;;10.25;99.46
55540;BME280;41384;51.418;7.286;2023-03-22T04:21:42;99122.94;;;10.29;99.73
55540;BME280;41384;51.418;7.286;2023-03-22T04:24:08;99114.53;;;10.20;99.91
55540;BME280;41384;51.418;7.286;2023-03-22T04:26:34;99125.09;;;10.20;100.00
55540;BME280;41384;51.418;7.286;2023-03-22T04:28:59;99122.66;;;10.19;100.00
55540;BME280;41384;51.418;7.286;2023-03-22T04:31:28;99108.44;;;10.20;99.90
55540;BME280;41384;51.418;7.286;2023-03-22T04:33:53;99115.78;;;10.18;100.00
55540;BME280;41384;51.418;7.286;2023-03-22T04:36:23;99127.34;;;10.17;100.00
55540;BME280;41384;51.418;7.286;2023-03-22T04:38:49;99108.88;;;10.17;100.00
55540;BME280;41384;51.418;7.286;2023-03-22T04:41:16;99127.34;;;10.17;100.00
55540;BME280;41384;51.418;7.286;2023-03-22T04:43:41;99111.06;;;10.20;100.00
55540;BME280;41384;51.418;7.286;2023-03-22T04:46:11;99111.13;;;10.13;100.00
55540;BME280;41384;51.418;7.286;2023-03-22T04:48:37;99115.81;;;10.11;100.00
55540;BME280;41384;51.418;7.286;2023-03-22T04:51:05;99123.91;;;10.16;100.00
55540;BME280;41384;51.418;7.286;2023-03-22T04:53:31;99116.41;;;10.13;100.00
55540;BME280;41384;51.418;7.286;2023-03-22T04:55:57;99104.63;;;10.16;100.00
55540;BME280;41384;51.418;7.286;2023-03-22T04:58:26;99114.81;;;10.12;100.00
55540;BME280;41384;51.418;7.286;2023-03-22T05:00:52;99103.41;;;10.18;100.00
55540;BME280;41384;51.418;7.286;2023-03-22T05:03:18;99103.41;;;10.18;99.78
55540;BME280;41384;51.418;7.286;2023-03-22T05:05:58;99100.31;;;10.21;99.90
55540;BME280;41384;51.418;7.286;2023-03-22T05:08:26;99102.97;;;10.21;99.25
55540;BME280;41384;51.418;7.286;2023-03-22T05:10:53;99105.75;;;10.27;98.70
55540;BME280;41384;51.418;7.286;2023-03-22T05:13:20;99115.13;;;10.22;99.02
55540;BME280;41384;51.418;7.286;2023-03-22T05:15:46;99111.16;;;10.32;98.80
55540;BME280;41384;51.418;7.286;2023-03-22T05:18:17;99121.56;;;10.27;98.92
55540;BME280;41384;51.418;7.286;2023-03-22T05:20:45;99119.56;;;10.22;99.31
55540;BME280;41384;51.418;7.286;2023-03-22T05:23:11;99106.38;;;10.22;99.05
55540;BME280;41384;51.418;7.286;2023-03-22T05:25:37;99115.56;;;10.19;99.71
55540;BME280;41384;51.418;7.286;2023-03-22T05:28:03;99118.69;;;10.28;99.64
55540;BME280;41384;51.418;7.286;2023-03-22T05:30:28;99110.28;;;10.19;99.34
55540;BME280;41384;51.418;7.286;2023-03-22T05:33:02;99111.00;;;10.27;99.90
55540;BME280;41384;51.418;7.286;2023-03-22T05:35:32;99106.91;;;10.31;99.16
55540;BME280;41384;51.418;7.286;2023-03-22T05:37:57;99110.19;;;10.26;99.53
55540;BME280;41384;51.418;7.286;2023-03-22T05:40:24;99107.22;;;10.41;99.16
55540;BME280;41384;51.418;7.286;2023-03-22T05:42:50;99109.03;;;10.41;98.40
55540;BME280;41384;51.418;7.286;2023-03-22T05:45:15;99107.50;;;10.33;99.14
55540;BME280;41384;51.418;7.286;2023-03-22T05:47:41;99107.63;;;10.38;99.12
55540;BME280;41384;51.418;7.286;2023-03-22T05:50:09;99104.56;;;10.41;98.70
55540;BME280;41384;51.418;7.286;2023-03-22T05:52:34;99104.41;;;10.36;98.95
55540;BME280;41384;51.418;7.286;2023-03-22T05:55:00;99106.75;;;10.44;98.55
55540;BME280;41384;51.418;7.286;2023-03-22T05:57:25;99105.28;;;10.48;98.58
55540;BME280;41384;51.418;7.286;2023-03-22T05:59:51;99111.50;;;10.54;98.12
55540;BME280;41384;51.418;7.286;2023-03-22T06:02:18;99105.06;;;10.50;98.17
55540;BME280;41384;51.418;7.286;2023-03-22T06:04:45;99108.72;;;10.49;98.05
55540;BME280;41384;51.418;7.286;2023-03-22T06:07:10;99109.44;;;10.56;98.03
55540;BME280;41384;51.418;7.286;2023-03-22T06:09:36;99098.44;;;10.59;97.65
55540;BME280;41384;51.418;7.286;2023-03-22T06:12:01;99101.69;;;10.61;97.24
55540;BME280;41384;51.418;7.286;2023-03-22T06:14:27;99091.53;;;10.58;97.88
55540;BME280;41384;51.418;7.286;2023-03-22T06:16:52;99093.53;;;10.63;97.27
55540;BME280;41384;51.418;7.286;2023-03-22T06:19:17;99093.31;;;10.64;97.26
55540;BME280;41384;51.418;7.286;2023-03-22T06:21:42;99098.22;;;10.61;97.08
55540;BME280;41384;51.418;7.286;2023-03-22T06:24:08;99091.47;;;10.65;96.83
55540;BME280;41384;51.418;7.286;2023-03-22T06:26:33;99091.03;;;10.68;97.29
55540;BME280;41384;51.418;7.286;2023-03-22T06:28:58;99091.16;;;10.73;97.04
55540;BME280;41384;51.418;7.286;2023-03-22T06:31:23;99094.94;;;10.77;96.48
55540;BME280;41384;51.418;7.286;2023-03-22T06:33:50;99102.28;;;10.75;96.38
55540;BME280;41384;51.418;7.286;2023-03-22T06:36:15;99103.09;;;10.76;96.75
55540;BME280;41384;51.418;7.286;2023-03-22T06:38:40;99104.13;;;10.75;96.48
55540;BME280;41384;51.418;7.286;2023-03-22T06:41:06;99100.94;;;10.85;96.09
55540;BME280;41384;51.418;7.286;2023-03-22T06:43:31;99108.41;;;10.88;95.50
55540;BME280;41384;51.418;7.286;2023-03-22T06:45:56;99107.81;;;10.86;95.12
55540;BME280;41384;51.418;7.286;2023-03-22T06:48:22;99103.94;;;10.88;95.71
55540;BME280;41384;51.418;7.286;2023-03-22T06:50:47;99102.13;;;11.01;94.98
55540;BME280;41384;51.418;7.286;2023-03-22T06:53:12;99104.78;;;11.01;94.69
55540;BME280;41384;51.418;7.286;2023-03-22T06:55:38;99096.94;;;10.94;94.44
55540;BME280;41384;51.418;7.286;2023-03-22T06:58:04;99099.25;;;11.02;94.26
55540;BME280;41384;51.418;7.286;2023-03-22T07:00:30;99093.97;;;11.02;94.16
55540;BME280;41384;51.418;7.286;2023-03-22T07:02:57;99092.94;;;11.03;93.74
55540;BME280;41384;51.418;7.286;2023-03-22T07:05:23;99092.59;;;11.00;93.29
55540;BME280;41384;51.418;7.286;2023-03-22T07:07:48;99096.41;;;11.04;93.54
55540;BME280;41384;51.418;7.286;2023-03-22T07:10:13;99089.88;;;11.06;93.20
55540;BME280;41384;51.418;7.286;2023-03-22T07:12:38;99088.59;;;11.09;92.73
55540;BME280;41384;51.418;7.286;2023-03-22T07:15:04;99090.56;;;11.14;92.46
55540;BME280;41384;51.418;7.286;2023-03-22T07:17:30;99084.59;;;11.18;92.22
55540;BME280;41384;51.418;7.286;2023-03-22T07:19:55;99072.09;;;11.14;91.87
55540;BME280;41384;51.418;7.286;2023-03-22T07:22:21;99079.31;;;11.18;92.21
55540;BME280;41384;51.418;7.286;2023-03-22T07:24:47;99085.50;;;11.12;91.55
55540;BME280;41384;51.418;7.286;2023-03-22T07:27:13;99081.38;;;11.16;91.28
55540;BME280;41384;51.418;7.286;2023-03-22T07:29:38;99079.53;;;11.05;91.28
55540;BME280;41384;51.418;7.286;2023-03-22T07:32:04;99079.88;;;11.08;91.09
55540;BME280;41384;51.418;7.286;2023-03-22T07:34:29;99074.81;;;11.07;91.31
55540;BME280;41384;51.418;7.286;2023-03-22T07:36:55;99074.72;;;11.14;90.90
55540;BME280;41384;51.418;7.286;2023-03-22T07:39:21;99066.78;;;11.14;89.85
55540;BME280;41384;51.418;7.286;2023-03-22T07:41:48;99070.59;;;11.18;90.04
55540;BME280;41384;51.418;7.286;2023-03-22T07:44:14;99074.25;;;11.29;89.26
55540;BME280;41384;51.418;7.286;2023-03-22T07:46:39;99071.72;;;11.34;88.35
55540;BME280;41384;51.418;7.286;2023-03-22T07:49:04;99069.00;;;11.41;87.47
55540;BME280;41384;51.418;7.286;2023-03-22T07:51:30;99072.31;;;11.36;87.06
55540;BME280;41384;51.418;7.286;2023-03-22T07:53:55;99071.75;;;11.46;86.98
55540;BME280;41384;51.418;7.286;2023-03-22T07:56:20;99062.09;;;11.51;86.80
55540;BME280;41384;51.418;7.286;2023-03-22T07:58:45;99058.75;;;11.56;86.52
55540;BME280;41384;51.418;7.286;2023-03-22T08:01:11;99062.91;;;11.64;86.57
55540;BME280;41384;51.418;7.286;2023-03-22T08:03:36;99051.59;;;11.68;86.25
55540;BME280;41384;51.418;7.286;2023-03-22T08:06:02;99067.00;;;11.72;84.56
55540;BME280;41384;51.418;7.286;2023-03-22T08:08:31;99054.25;;;11.68;84.18
55540;BME280;41384;51.418;7.286;2023-03-22T08:10:57;99055.06;;;11.69;83.48
55540;BME280;41384;51.418;7.286;2023-03-22T08:13:22;99057.72;;;11.69;82.78
55540;BME280;41384;51.418;7.286;2023-03-22T08:15:47;99060.25;;;11.64;81.90
55540;BME280;41384;51.418;7.286;2023-03-22T08:18:13;99064.72;;;11.63;82.38
55540;BME280;41384;51.418;7.286;2023-03-22T08:20:38;99052.22;;;11.59;81.40
55540;BME280;41384;51.418;7.286;2023-03-22T08:23:04;99056.47;;;11.60;81.22
55540;BME280;41384;51.418;7.286;2023-03-22T08:25:32;99064.50;;;11.65;81.59
55540;BME280;41384;51.418;7.286;2023-03-22T08:27:57;99058.84;;;11.73;81.41
55540;BME280;41384;51.418;7.286;2023-03-22T08:30:23;99060.91;;;11.83;80.82
55540;BME280;41384;51.418;7.286;2023-03-22T08:32:49;99070.66;;;11.94;80.61
55540;BME280;41384;51.418;7.286;2023-03-22T08:35:14;99058.16;;;12.02;79.56
55540;BME280;41384;51.418;7.286;2023-03-22T08:37:40;99064.91;;;11.97;78.72
55540;BME280;41384;51.418;7.286;2023-03-22T08:40:07;99074.44;;;11.99;78.45
55540;BME280;41384;51.418;7.286;2023-03-22T08:42:33;99063.31;;;11.96;78.06
55540;BME280;41384;51.418;7.286;2023-03-22T08:44:59;99072.84;;;11.97;77.81
55540;BME280;41384;51.418;7.286;2023-03-22T08:47:24;99075.13;;;11.94;77.49
55540;BME280;41384;51.418;7.286;2023-03-22T08:49:50;99073.75;;;12.03;77.40
55540;BME280;41384;51.418;7.286;2023-03-22T08:52:15;99069.97;;;12.11;76.50
55540;BME280;41384;51.418;7.286;2023-03-22T08:54:40;99072.00;;;12.21;76.54
55540;BME280;41384;51.418;7.286;2023-03-22T08:57:06;99072.56;;;12.23;76.42
55540;BME280;41384;51.418;7.286;2023-03-22T08:59:33;99077.63;;;12.24;76.49
55540;BME280;41384;51.418;7.286;2023-03-22T09:01:59;99067.34;;;12.28;76.38
55540;BME280;41384;51.418;7.286;2023-03-22T09:04:24;99075.88;;;12.30;76.13
55540;BME280;41384;51.418;7.286;2023-03-22T09:06:50;99064.72;;;12.28;75.73
55540;BME280;41384;51.418;7.286;2023-03-22T09:09:15;99067.59;;;12.26;75.64
55540;BME280;41384;51.418;7.286;2023-03-22T09:11:41;99065.75;;;12.27;75.57
55540;BME280;41384;51.418;7.286;2023-03-22T09:14:09;99057.59;;;12.29;75.73
55540;BME280;41384;51.418;7.286;2023-03-22T09:16:35;99058.03;;;12.37;75.77
55540;BME280;41384;51.418;7.286;2023-03-22T09:19:00;99059.00;;;12.48;76.01
55540;BME280;41384;51.418;7.286;2023-03-22T09:21:26;99064.56;;;12.47;75.35
55540;BME280;41384;51.418;7.286;2023-03-22T09:23:53;99051.97;;;12.54;75.17
55540;BME280;41384;51.418;7.286;2023-03-22T09:26:19;99053.31;;;12.57;74.91
55540;BME280;41384;51.418;7.286;2023-03-22T09:28:46;99051.03;;;12.60;74.74
55540;BME280;41384;51.418;7.286;2023-03-22T09:31:12;99054.47;;;12.61;74.38
55540;BME280;41384;51.418;7.286;2023-03-22T09:33:39;99056.69;;;12.52;73.84
55540;BME280;41384;51.418;7.286;2023-03-22T09:36:06;99057.91;;;12.61;74.16
55540;BME280;41384;51.418;7.286;2023-03-22T09:38:31;99054.38;;;12.55;73.75
55540;BME280;41384;51.418;7.286;2023-03-22T09:41:01;99058.06;;;12.54;72.65
55540;BME280;41384;51.418;7.286;2023-03-22T09:43:29;99060.56;;;12.61;73.31
55540;BME280;41384;51.418;7.286;2023-03-22T09:45:57;99050.06;;;12.66;72.28
55540;BME280;41384;51.418;7.286;2023-03-22T09:48:30;99048.59;;;12.59;71.35
55540;BME280;41384;51.418;7.286;2023-03-22T09:50:59;99046.34;;;12.50;71.45
55540;BME280;41384;51.418;7.286;2023-03-22T09:53:27;99037.47;;;12.74;71.67
55540;BME280;41384;51.418;7.286;2023-03-22T09:55:59;99034.44;;;12.99;70.10
55540;BME280;41384;51.418;7.286;2023-03-22T09:58:47;99027.50;;;13.15;69.85
55540;BME280;41384;51.418;7.286;2023-03-22T10:09:52;99050.47;;;12.92;71.18
55540;BME280;41384;51.418;7.286;2023-03-22T10:12:25;99052.81;;;13.06;72.43
55540;BME280;41384;51.418;7.286;2023-03-22T10:15:13;99041.66;;;13.04;70.45
55540;BME280;41384;51.418;7.286;2023-03-22T10:17:43;99045.03;;;12.99;69.59
55540;BME280;41384;51.418;7.286;2023-03-22T10:22:51;99050.75;;;12.91;67.89
55540;BME280;41384;51.418;7.286;2023-03-22T10:25:20;99050.31;;;12.82;68.61
55540;BME280;41384;51.418;7.286;2023-03-22T10:27:48;99044.13;;;12.93;68.76
55540;BME280;41384;51.418;7.286;2023-03-22T10:30:23;99040.44;;;13.11;68.23
55540;BME280;41384;51.418;7.286;2023-03-22T10:32:59;99040.94;;;13.08;67.25
55540;BME280;41384;51.418;7.286;2023-03-22T10:35:26;99042.69;;;13.20;66.81
55540;BME280;41384;51.418;7.286;2023-03-22T10:37:54;99029.19;;;13.21;65.67
55540;BME280;41384;51.418;7.286;2023-03-22T10:40:30;99038.44;;;13.19;65.42
55540;BME280;41384;51.418;7.286;2023-03-22T10:43:05;99034.66;;;13.14;64.30
55540;BME280;41384;51.418;7.286;2023-03-22T10:45:33;99043.31;;;13.27;65.46
55540;BME280;41384;51.418;7.286;2023-03-22T10:48:03;99037.88;;;13.17;64.67
55540;BME280;41384;51.418;7.286;2023-03-22T10:50:33;99056.34;;;13.11;65.08
55540;BME280;41384;51.418;7.286;2023-03-22T10:55:44;99055.69;;;13.21;64.04
55540;BME280;41384;51.418;7.286;2023-03-22T10:58:14;99045.09;;;13.21;63.10
55540;BME280;41384;51.418;7.286;2023-03-22T11:00:51;99053.03;;;13.21;64.09
55540;BME280;41384;51.418;7.286;2023-03-22T11:03:49;99033.53;;;13.27;63.31
55540;BME280;41384;51.418;7.286;2023-03-22T11:06:26;99030.78;;;13.22;62.79
55540;BME280;41384;51.418;7.286;2023-03-22T11:08:58;99028.13;;;13.22;63.15
55540;BME280;41384;51.418;7.286;2023-03-22T11:11:29;99026.63;;;13.26;61.88
55540;BME280;41384;51.418;7.286;2023-03-22T11:14:00;99033.91;;;13.36;61.70
55540;BME280;41384;51.418;7.286;2023-03-22T11:16:28;99034.66;;;13.32;61.76
55540;BME280;41384;51.418;7.286;2023-03-22T11:18:56;99035.78;;;13.36;62.33
55540;BME280;41384;51.418;7.286;2023-03-22T11:21:27;99038.81;;;13.45;61.58
55540;BME280;41384;51.418;7.286;2023-03-22T11:24:00;99039.00;;;13.38;62.50
55540;BME280;41384;51.418;7.286;2023-03-22T11:26:32;99040.19;;;13.30;62.03
55540;BME280;41384;51.418;7.286;2023-03-22T11:29:13;99029.66;;;13.35;62.13
55540;BME280;41384;51.418;7.286;2023-03-22T11:31:55;99034.25;;;13.40;61.86
55540;BME280;41384;51.418;7.286;2023-03-22T11:34:28;99033.19;;;13.41;62.10
55540;BME280;41384;51.418;7.286;2023-03-22T11:36:54;99030.66;;;13.46;61.27
55540;BME280;41384;51.418;7.286;2023-03-22T11:39:23;99030.53;;;13.41;61.28
55540;BME280;41384;51.418;7.286;2023-03-22T11:41:49;99038.16;;;13.37;61.79
55540;BME280;41384;51.418;7.286;2023-03-22T11:44:17;99033.84;;;13.31;60.66
55540;BME280;41384;51.418;7.286;2023-03-22T11:46:53;99029.03;;;13.28;61.15
55540;BME280;41384;51.418;7.286;2023-03-22T11:49:22;99022.53;;;13.19;61.76
55540;BME280;41384;51.418;7.286;2023-03-22T11:51:48;99032.31;;;13.18;61.80
55540;BME280;41384;51.418;7.286;2023-03-22T11:56:47;99030.66;;;13.12;62.53
55540;BME280;41384;51.418;7.286;2023-03-22T11:59:22;99021.56;;;13.08;63.93
55540;BME280;41384;51.418;7.286;2023-03-22T12:02:24;99029.72;;;13.01;63.36
55540;BME280;41384;51.418;7.286;2023-03-22T12:04:55;99038.28;;;12.91;63.95
55540;BME280;41384;51.418;7.286;2023-03-22T12:07:26;99031.28;;;12.85;64.10
55540;BME280;41384;51.418;7.286;2023-03-22T12:10:00;99026.09;;;12.90;64.05
55540;BME280;41384;51.418;7.286;2023-03-22T12:12:30;99026.16;;;12.95;64.85
55540;BME280;41384;51.418;7.286;2023-03-22T12:15:04;99013.72;;;12.96;64.50
55540;BME280;41384;51.418;7.286;2023-03-22T12:17:34;99026.25;;;13.01;64.90
55540;BME280;41384;51.418;7.286;2023-03-22T12:22:52;99005.88;;;13.01;64.37
55540;BME280;41384;51.418;7.286;2023-03-22T12:25:21;98997.28;;;12.94;64.00
55540;BME280;41384;51.418;7.286;2023-03-22T12:27:52;98996.78;;;12.97;64.27
55540;BME280;41384;51.418;7.286;2023-03-22T12:30:22;98996.72;;;12.92;65.14
55540;BME280;41384;51.418;7.286;2023-03-22T12:33:01;99001.19;;;12.91;64.99
55540;BME280;41384;51.418;7.286;2023-03-22T12:35:30;98986.44;;;12.95;64.19
55540;BME280;41384;51.418;7.286;2023-03-22T12:37:58;98990.38;;;12.93;63.98
55540;BME280;41384;51.418;7.286;2023-03-22T12:40:30;98990.44;;;12.98;63.48
55540;BME280;41384;51.418;7.286;2023-03-22T12:43:12;99001.53;;;12.95;63.05
55540;BME280;41384;51.418;7.286;2023-03-22T12:45:41;99001.53;;;12.95;62.77
55540;BME280;41384;51.418;7.286;2023-03-22T12:48:22;99013.72;;;12.96;63.00
55540;BME280;41384;51.418;7.286;2023-03-22T12:50:57;99006.41;;;12.86;62.83
55540;BME280;41384;51.418;7.286;2023-03-22T12:53:27;99021.19;;;12.82;63.22
55540;BME280;41384;51.418;7.286;2023-03-22T12:55:54;99022.94;;;12.76;64.13
55540;BME280;41384;51.418;7.286;2023-03-22T12:58:23;99025.59;;;12.76;64.33
55540;BME280;41384;51.418;7.286;2023-03-22T13:00:54;99020.28;;;12.59;64.13
55540;BME280;41384;51.418;7.286;2023-03-22T13:03:37;99019.41;;;12.70;64.46
55540;BME280;41384;51.418;7.286;2023-03-22T13:11:39;99016.44;;;12.67;65.83
55540;BME280;41384;51.418;7.286;2023-03-22T13:14:05;99022.53;;;12.67;66.72
55540;BME280;41384;51.418;7.286;2023-03-22T13:16:54;99030.16;;;12.64;66.82
55540;BME280;41384;51.418;7.286;2023-03-22T13:19:53;99036.56;;;12.51;67.12
55540;BME280;41384;51.418;7.286;2023-03-22T13:22:57;99029.97;;;12.53;66.65
55540;BME280;41384;51.418;7.286;2023-03-22T13:30:46;99020.78;;;12.56;66.98
55540;BME280;41384;51.418;7.286;2023-03-22T13:35:52;99025.34;;;12.61;66.75
55540;BME280;41384;51.418;7.286;2023-03-22T13:38:25;99017.72;;;12.64;66.38
55540;BME280;41384;51.418;7.286;2023-03-22T13:41:04;99020.38;;;12.64;65.85
55540;BME280;41384;51.418;7.286;2023-03-22T13:43:45;99016.75;;;12.53;65.79
55540;BME280;41384;51.418;7.286;2023-03-22T13:51:32;99014.19;;;12.59;66.58
55540;BME280;41384;51.418;7.286;2023-03-22T13:54:05;99022.13;;;12.59;66.47
55540;BME280;41384;51.418;7.286;2023-03-22T13:59:31;99015.38;;;12.51;65.81
55540;BME280;41384;51.418;7.286;2023-03-22T14:02:27;99006.00;;;12.60;65.90
55540;BME280;41384;51.418;7.286;2023-03-22T14:05:08;99008.66;;;12.77;65.67
55540;BME280;41384;51.418;7.286;2023-03-22T14:07:51;99014.84;;;12.83;65.87
55540;BME280;41384;51.418;7.286;2023-03-22T14:10:21;99005.69;;;12.74;66.00
55540;BME280;41384;51.418;7.286;2023-03-22T14:12:56;99013.56;;;12.86;65.99
55540;BME280;41384;51.418;7.286;2023-03-22T14:15:29;99006.56;;;12.79;65.68